sensor_id;sensor_type;location;lat;lon;timestamp;temperature;humidity
43884;DHT22;29544;52.018;5.810;2023-07-31T00:00:50;21.60;69.60
43884;DHT22;29544;52.018;5.810;2023-07-31T00:03:16;21.60;69.60
43884;DHT22;29544;52.018;5.810;2023-07-31T00:05:41;21.50;69.50
43884;DHT22;29544;52.018;5.810;2023-07-31T00:08:07;21.50;69.60
43884;DHT22;29544;52.018;5.810;2023-07-31T00:10:32;21.50;69.50
43884;DHT22;29544;52.018;5.810;2023-07-31T00:12:58;21.50;69.50
43884;DHT22;29544;52.018;5.810;2023-07-31T00:15:24;21.50;69.60
43884;DHT22;29544;52.018;5.810;2023-07-31T00:17:49;21.50;69.60
43884;DHT22;29544;52.018;5.810;2023-07-31T00:20:15;21.50;69.60
43884;DHT22;29544;52.018;5.810;2023-07-31T00:22:40;21.50;69.60
43884;DHT22;29544;52.018;5.810;2023-07-31T00:25:06;21.50;69.60
43884;DHT22;29544;52.018;5.810;2023-07-31T00:27:32;21.50;69.60
43884;DHT22;29544;52.018;5.810;2023-07-31T00:29:57;21.50;69.60
43884;DHT22;29544;52.018;5.810;2023-07-31T00:32:22;21.50;69.70
43884;DHT22;29544;52.018;5.810;2023-07-31T00:34:48;21.50;69.70
43884;DHT22;29544;52.018;5.810;2023-07-31T00:37:13;21.50;69.70
43884;DHT22;29544;52.018;5.810;2023-07-31T00:39:40;21.50;69.70
43884;DHT22;29544;52.018;5.810;2023-07-31T00:42:06;21.40;69.70
43884;DHT22;29544;52.018;5.810;2023-07-31T00:44:31;21.40;69.70
43884;DHT22;29544;52.018;5.810;2023-07-31T00:46:57;21.40;69.70
43884;DHT22;29544;52.018;5.810;2023-07-31T00:49:24;21.40;69.80
43884;DHT22;29544;52.018;5.810;2023-07-31T00:51:50;21.40;69.70
43884;DHT22;29544;52.018;5.810;2023-07-31T00:54:15;21.40;69.70
43884;DHT22;29544;52.018;5.810;2023-07-31T00:56:41;21.40;69.70
43884;DHT22;29544;52.018;5.810;2023-07-31T00:59:09;21.40;69.80
43884;DHT22;29544;52.018;5.810;2023-07-31T01:01:35;21.40;69.80
43884;DHT22;29544;52.018;5.810;2023-07-31T01:04:00;21.40;69.80
43884;DHT22;29544;52.018;5.810;2023-07-31T01:09:02;21.40;69.80
43884;DHT22;29544;52.018;5.810;2023-07-31T01:11:29;21.40;69.80
43884;DHT22;29544;52.018;5.810;2023-07-31T01:13:55;21.40;69.80
43884;DHT22;29544;52.018;5.810;2023-07-31T01:16:21;21.40;69.80
43884;DHT22;29544;52.018;5.810;2023-07-31T01:18:46;21.40;69.90
43884;DHT22;29544;52.018;5.810;2023-07-31T01:26:33;21.30;69.80
43884;DHT22;29544;52.018;5.810;2023-07-31T01:29:01;21.40;69.80
43884;DHT22;29544;52.018;5.810;2023-07-31T01:31:27;21.40;69.90
43884;DHT22;29544;52.018;5.810;2023-07-31T01:33:54;21.30;69.90
43884;DHT22;29544;52.018;5.810;2023-07-31T01:36:21;21.30;69.90
43884;DHT22;29544;52.018;5.810;2023-07-31T01:38:47;21.40;69.90
43884;DHT22;29544;52.018;5.810;2023-07-31T01:41:12;21.30;69.90
43884;DHT22;29544;52.018;5.810;2023-07-31T01:43:38;21.30;69.90
43884;DHT22;29544;52.018;5.810;2023-07-31T01:46:04;21.30;69.90
43884;DHT22;29544;52.018;5.810;2023-07-31T01:48:29;21.30;69.90
43884;DHT22;29544;52.018;5.810;2023-07-31T01:51:00;21.30;70.00
43884;DHT22;29544;52.018;5.810;2023-07-31T01:53:26;21.30;70.00
43884;DHT22;29544;52.018;5.810;2023-07-31T01:55:51;21.30;70.00
43884;DHT22;29544;52.018;5.810;2023-07-31T01:58:17;21.30;70.00
43884;DHT22;29544;52.018;5.810;2023-07-31T02:00:42;21.30;70.00
43884;DHT22;29544;52.018;5.810;2023-07-31T02:03:08;21.30;70.00
43884;DHT22;29544;52.018;5.810;2023-07-31T02:05:33;21.30;70.00
43884;DHT22;29544;52.018;5.810;2023-07-31T02:07:59;21.30;70.10
43884;DHT22;29544;52.018;5.810;2023-07-31T02:10:24;21.30;70.00
43884;DHT22;29544;52.018;5.810;2023-07-31T02:12:49;21.30;70.10
43884;DHT22;29544;52.018;5.810;2023-07-31T02:15:15;21.30;70.10
43884;DHT22;29544;52.018;5.810;2023-07-31T02:17:40;21.30;70.10
43884;DHT22;29544;52.018;5.810;2023-07-31T02:20:06;21.30;70.10
43884;DHT22;29544;52.018;5.810;2023-07-31T02:22:31;21.30;70.80
43884;DHT22;29544;52.018;5.810;2023-07-31T02:24:57;21.30;70.30
43884;DHT22;29544;52.018;5.810;2023-07-31T02:27:22;21.30;70.40
43884;DHT22;29544;52.018;5.810;2023-07-31T02:29:52;21.20;70.30
43884;DHT22;29544;52.018;5.810;2023-07-31T02:32:17;21.30;70.30
43884;DHT22;29544;52.018;5.810;2023-07-31T02:34:43;21.30;70.40
43884;DHT22;29544;52.018;5.810;2023-07-31T02:37:08;21.30;70.40
43884;DHT22;29544;52.018;5.810;2023-07-31T02:39:34;21.30;70.40
43884;DHT22;29544;52.018;5.810;2023-07-31T02:41:59;21.20;70.40
43884;DHT22;29544;52.018;5.810;2023-07-31T02:44:25;21.20;70.40
43884;DHT22;29544;52.018;5.810;2023-07-31T02:46:51;21.20;70.40
43884;DHT22;29544;52.018;5.810;2023-07-31T02:49:16;21.20;70.30
43884;DHT22;29544;52.018;5.810;2023-07-31T02:51:42;21.20;70.40
43884;DHT22;29544;52.018;5.810;2023-07-31T02:54:07;21.20;70.40
43884;DHT22;29544;52.018;5.810;2023-07-31T02:56:33;21.20;70.50
43884;DHT22;29544;52.018;5.810;2023-07-31T02:58:58;21.20;70.50
43884;DHT22;29544;52.018;5.810;2023-07-31T03:01:23;21.20;70.40
43884;DHT22;29544;52.018;5.810;2023-07-31T03:03:49;21.20;70.60
43884;DHT22;29544;52.018;5.810;2023-07-31T03:06:14;21.20;70.60
43884;DHT22;29544;52.018;5.810;2023-07-31T03:08:40;21.20;70.60
43884;DHT22;29544;52.018;5.810;2023-07-31T03:11:05;21.20;70.60
43884;DHT22;29544;52.018;5.810;2023-07-31T03:13:31;21.20;70.60
43884;DHT22;29544;52.018;5.810;2023-07-31T03:15:56;21.20;70.60
43884;DHT22;29544;52.018;5.810;2023-07-31T03:18:21;21.20;70.60
43884;DHT22;29544;52.018;5.810;2023-07-31T03:20:47;21.20;70.60
43884;DHT22;29544;52.018;5.810;2023-07-31T03:23:12;21.20;70.60
43884;DHT22;29544;52.018;5.810;2023-07-31T03:25:38;21.20;70.60
43884;DHT22;29544;52.018;5.810;2023-07-31T03:28:03;21.20;70.60
43884;DHT22;29544;52.018;5.810;2023-07-31T03:30:29;21.20;70.70
43884;DHT22;29544;52.018;5.810;2023-07-31T03:32:54;21.10;70.70
43884;DHT22;29544;52.018;5.810;2023-07-31T03:35:19;21.10;70.70
43884;DHT22;29544;52.018;5.810;2023-07-31T03:37:45;21.20;70.80
43884;DHT22;29544;52.018;5.810;2023-07-31T03:40:10;21.10;70.70
43884;DHT22;29544;52.018;5.810;2023-07-31T03:42:36;21.20;70.80
43884;DHT22;29544;52.018;5.810;2023-07-31T03:45:01;21.10;70.80
43884;DHT22;29544;52.018;5.810;2023-07-31T03:47:27;21.10;70.80
43884;DHT22;29544;52.018;5.810;2023-07-31T03:49:52;21.10;70.80
43884;DHT22;29544;52.018;5.810;2023-07-31T03:52:18;21.10;70.80
43884;DHT22;29544;52.018;5.810;2023-07-31T03:54:43;21.10;70.90
43884;DHT22;29544;52.018;5.810;2023-07-31T03:57:10;21.10;70.90
43884;DHT22;29544;52.018;5.810;2023-07-31T03:59:35;21.10;70.90
43884;DHT22;29544;52.018;5.810;2023-07-31T04:02:01;21.10;70.80
43884;DHT22;29544;52.018;5.810;2023-07-31T04:04:26;21.10;70.80
43884;DHT22;29544;52.018;5.810;2023-07-31T04:06:51;21.10;70.90
43884;DHT22;29544;52.018;5.810;2023-07-31T04:09:17;21.10;70.90
43884;DHT22;29544;52.018;5.810;2023-07-31T04:11:42;21.10;70.90
43884;DHT22;29544;52.018;5.810;2023-07-31T04:14:08;21.10;70.90
43884;DHT22;29544;52.018;5.810;2023-07-31T04:16:33;21.10;70.90
43884;DHT22;29544;52.018;5.810;2023-07-31T04:18:59;21.10;71.00
43884;DHT22;29544;52.018;5.810;2023-07-31T04:21:24;21.10;70.90
43884;DHT22;29544;52.018;5.810;2023-07-31T04:23:50;21.10;71.00
43884;DHT22;29544;52.018;5.810;2023-07-31T04:26:15;21.10;71.00
43884;DHT22;29544;52.018;5.810;2023-07-31T04:28:41;21.10;71.00
43884;DHT22;29544;52.018;5.810;2023-07-31T04:31:06;21.10;71.00
43884;DHT22;29544;52.018;5.810;2023-07-31T04:33:32;21.10;71.00
43884;DHT22;29544;52.018;5.810;2023-07-31T04:35:58;21.10;71.00
43884;DHT22;29544;52.018;5.810;2023-07-31T04:38:23;21.10;71.00
43884;DHT22;29544;52.018;5.810;2023-07-31T04:40:49;21.00;71.10
43884;DHT22;29544;52.018;5.810;2023-07-31T04:43:14;21.00;71.10
43884;DHT22;29544;52.018;5.810;2023-07-31T04:45:42;21.00;71.00
43884;DHT22;29544;52.018;5.810;2023-07-31T04:48:07;21.00;71.10
43884;DHT22;29544;52.018;5.810;2023-07-31T04:50:33;21.00;71.10
43884;DHT22;29544;52.018;5.810;2023-07-31T04:52:58;21.00;71.00
43884;DHT22;29544;52.018;5.810;2023-07-31T04:55:24;21.00;71.10
43884;DHT22;29544;52.018;5.810;2023-07-31T04:57:49;21.00;71.00
43884;DHT22;29544;52.018;5.810;2023-07-31T05:00:15;21.00;71.10
43884;DHT22;29544;52.018;5.810;2023-07-31T05:02:40;21.00;71.10
43884;DHT22;29544;52.018;5.810;2023-07-31T05:05:06;21.00;71.10
43884;DHT22;29544;52.018;5.810;2023-07-31T05:07:31;21.00;71.10
43884;DHT22;29544;52.018;5.810;2023-07-31T05:09:57;21.00;71.10
43884;DHT22;29544;52.018;5.810;2023-07-31T05:12:22;21.00;71.10
43884;DHT22;29544;52.018;5.810;2023-07-31T05:14:47;20.90;71.10
43884;DHT22;29544;52.018;5.810;2023-07-31T05:17:13;21.00;71.20
43884;DHT22;29544;52.018;5.810;2023-07-31T05:19:38;21.00;71.20
43884;DHT22;29544;52.018;5.810;2023-07-31T05:22:04;21.00;71.10
43884;DHT22;29544;52.018;5.810;2023-07-31T05:24:29;21.00;71.20
43884;DHT22;29544;52.018;5.810;2023-07-31T05:26:55;21.00;71.10
43884;DHT22;29544;52.018;5.810;2023-07-31T05:29:20;21.00;71.20
43884;DHT22;29544;52.018;5.810;2023-07-31T05:31:46;21.00;71.20
43884;DHT22;29544;52.018;5.810;2023-07-31T05:34:11;21.00;71.20
43884;DHT22;29544;52.018;5.810;2023-07-31T05:36:37;21.00;71.30
43884;DHT22;29544;52.018;5.810;2023-07-31T05:39:02;21.00;71.20
43884;DHT22;29544;52.018;5.810;2023-07-31T05:41:32;21.00;71.20
43884;DHT22;29544;52.018;5.810;2023-07-31T05:43:57;21.00;71.30
43884;DHT22;29544;52.018;5.810;2023-07-31T05:46:23;21.00;71.30
43884;DHT22;29544;52.018;5.810;2023-07-31T05:48:48;20.90;71.30
43884;DHT22;29544;52.018;5.810;2023-07-31T05:51:14;21.00;71.30
43884;DHT22;29544;52.018;5.810;2023-07-31T05:53:39;20.90;71.30
43884;DHT22;29544;52.018;5.810;2023-07-31T05:56:06;20.90;71.30
43884;DHT22;29544;52.018;5.810;2023-07-31T05:58:31;20.90;71.30
43884;DHT22;29544;52.018;5.810;2023-07-31T06:00:57;20.90;71.40
43884;DHT22;29544;52.018;5.810;2023-07-31T06:03:22;20.90;71.40
43884;DHT22;29544;52.018;5.810;2023-07-31T06:05:47;20.90;71.30
43884;DHT22;29544;52.018;5.810;2023-07-31T06:08:13;20.90;71.30
43884;DHT22;29544;52.018;5.810;2023-07-31T06:10:38;20.90;71.30
43884;DHT22;29544;52.018;5.810;2023-07-31T06:13:04;20.90;71.30
43884;DHT22;29544;52.018;5.810;2023-07-31T06:15:29;20.90;71.30
43884;DHT22;29544;52.018;5.810;2023-07-31T06:17:55;20.90;71.40
43884;DHT22;29544;52.018;5.810;2023-07-31T06:20:21;20.90;71.30
43884;DHT22;29544;52.018;5.810;2023-07-31T06:22:46;20.90;71.40
43884;DHT22;29544;52.018;5.810;2023-07-31T06:25:11;20.90;71.30
43884;DHT22;29544;52.018;5.810;2023-07-31T06:27:37;20.90;71.40
43884;DHT22;29544;52.018;5.810;2023-07-31T06:30:02;20.90;71.40
43884;DHT22;29544;52.018;5.810;2023-07-31T06:32:28;20.90;71.40
43884;DHT22;29544;52.018;5.810;2023-07-31T06:34:53;20.90;72.10
43884;DHT22;29544;52.018;5.810;2023-07-31T06:37:19;20.90;71.50
43884;DHT22;29544;52.018;5.810;2023-07-31T06:39:44;20.90;71.40
43884;DHT22;29544;52.018;5.810;2023-07-31T06:42:10;20.90;71.40
43884;DHT22;29544;52.018;5.810;2023-07-31T06:44:35;20.90;71.50
43884;DHT22;29544;52.018;5.810;2023-07-31T06:47:01;20.90;71.50
43884;DHT22;29544;52.018;5.810;2023-07-31T06:49:26;20.90;71.50
43884;DHT22;29544;52.018;5.810;2023-07-31T06:51:52;20.90;71.50
43884;DHT22;29544;52.018;5.810;2023-07-31T06:54:17;20.90;71.60
43884;DHT22;29544;52.018;5.810;2023-07-31T06:56:42;20.90;72.20
43884;DHT22;29544;52.018;5.810;2023-07-31T06:59:08;20.90;71.60
43884;DHT22;29544;52.018;5.810;2023-07-31T07:01:33;20.90;71.50
43884;DHT22;29544;52.018;5.810;2023-07-31T07:03:59;20.80;71.50
43884;DHT22;29544;52.018;5.810;2023-07-31T07:06:24;20.90;71.60
43884;DHT22;29544;52.018;5.810;2023-07-31T07:08:50;20.90;71.60
43884;DHT22;29544;52.018;5.810;2023-07-31T07:11:15;20.90;71.60
43884;DHT22;29544;52.018;5.810;2023-07-31T07:13:41;20.90;71.60
43884;DHT22;29544;52.018;5.810;2023-07-31T07:16:06;20.90;71.60
43884;DHT22;29544;52.018;5.810;2023-07-31T07:18:32;20.80;71.60
43884;DHT22;29544;52.018;5.810;2023-07-31T07:20:57;20.90;71.70
43884;DHT22;29544;52.018;5.810;2023-07-31T07:23:23;20.80;71.70
43884;DHT22;29544;52.018;5.810;2023-07-31T07:25:49;20.80;71.70
43884;DHT22;29544;52.018;5.810;2023-07-31T07:28:14;20.80;71.60
43884;DHT22;29544;52.018;5.810;2023-07-31T07:30:40;20.90;71.70
43884;DHT22;29544;52.018;5.810;2023-07-31T07:33:05;20.90;71.70
43884;DHT22;29544;52.018;5.810;2023-07-31T07:35:34;20.80;71.60
43884;DHT22;29544;52.018;5.810;2023-07-31T07:38:00;20.90;71.70
43884;DHT22;29544;52.018;5.810;2023-07-31T07:40:26;20.80;71.80
43884;DHT22;29544;52.018;5.810;2023-07-31T07:42:51;20.80;71.80
43884;DHT22;29544;52.018;5.810;2023-07-31T07:45:17;20.80;71.90
43884;DHT22;29544;52.018;5.810;2023-07-31T07:47:42;20.90;72.10
43884;DHT22;29544;52.018;5.810;2023-07-31T07:50:08;20.90;72.10
43884;DHT22;29544;52.018;5.810;2023-07-31T07:52:34;20.90;72.10
43884;DHT22;29544;52.018;5.810;2023-07-31T07:54:59;20.90;72.40
43884;DHT22;29544;52.018;5.810;2023-07-31T07:57:25;20.80;72.40
43884;DHT22;29544;52.018;5.810;2023-07-31T07:59:51;20.90;72.40
43884;DHT22;29544;52.018;5.810;2023-07-31T08:02:16;20.90;72.60
43884;DHT22;29544;52.018;5.810;2023-07-31T08:04:42;20.90;72.60
43884;DHT22;29544;52.018;5.810;2023-07-31T08:07:07;20.80;72.70
43884;DHT22;29544;52.018;5.810;2023-07-31T08:09:33;20.80;72.90
43884;DHT22;29544;52.018;5.810;2023-07-31T08:11:58;20.90;72.80
43884;DHT22;29544;52.018;5.810;2023-07-31T08:14:27;20.80;72.70
43884;DHT22;29544;52.018;5.810;2023-07-31T08:16:52;20.80;72.70
43884;DHT22;29544;52.018;5.810;2023-07-31T08:19:18;20.80;72.90
43884;DHT22;29544;52.018;5.810;2023-07-31T08:21:43;20.80;72.90
43884;DHT22;29544;52.018;5.810;2023-07-31T08:24:09;20.90;72.90
43884;DHT22;29544;52.018;5.810;2023-07-31T08:26:34;20.80;73.00
43884;DHT22;29544;52.018;5.810;2023-07-31T08:29:00;20.80;72.90
43884;DHT22;29544;52.018;5.810;2023-07-31T08:31:25;20.80;73.10
43884;DHT22;29544;52.018;5.810;2023-07-31T08:33:52;20.80;73.20
43884;DHT22;29544;52.018;5.810;2023-07-31T08:36:17;20.80;73.10
43884;DHT22;29544;52.018;5.810;2023-07-31T08:38:45;20.90;73.10
43884;DHT22;29544;52.018;5.810;2023-07-31T08:41:10;20.90;73.00
43884;DHT22;29544;52.018;5.810;2023-07-31T08:43:36;20.90;73.10
43884;DHT22;29544;52.018;5.810;2023-07-31T08:46:02;20.90;73.10
43884;DHT22;29544;52.018;5.810;2023-07-31T08:48:28;20.90;73.20
43884;DHT22;29544;52.018;5.810;2023-07-31T08:50:54;20.90;73.20
43884;DHT22;29544;52.018;5.810;2023-07-31T08:53:20;20.90;73.40
43884;DHT22;29544;52.018;5.810;2023-07-31T08:55:46;20.90;73.20
43884;DHT22;29544;52.018;5.810;2023-07-31T08:58:12;20.90;73.50
43884;DHT22;29544;52.018;5.810;2023-07-31T09:00:38;20.90;73.20
43884;DHT22;29544;52.018;5.810;2023-07-31T09:03:14;20.90;73.30
43884;DHT22;29544;52.018;5.810;2023-07-31T09:05:44;20.90;73.40
43884;DHT22;29544;52.018;5.810;2023-07-31T09:08:10;20.90;73.40
43884;DHT22;29544;52.018;5.810;2023-07-31T09:10:40;20.90;73.60
43884;DHT22;29544;52.018;5.810;2023-07-31T09:13:06;20.90;73.60
43884;DHT22;29544;52.018;5.810;2023-07-31T09:15:31;20.90;73.70
43884;DHT22;29544;52.018;5.810;2023-07-31T09:18:00;20.80;73.70
43884;DHT22;29544;52.018;5.810;2023-07-31T09:20:26;20.90;73.60
43884;DHT22;29544;52.018;5.810;2023-07-31T09:22:52;20.90;73.80
43884;DHT22;29544;52.018;5.810;2023-07-31T09:25:21;20.90;73.60
43884;DHT22;29544;52.018;5.810;2023-07-31T09:27:50;20.90;73.70
43884;DHT22;29544;52.018;5.810;2023-07-31T09:30:16;20.90;73.80
43884;DHT22;29544;52.018;5.810;2023-07-31T09:32:43;20.90;73.90
43884;DHT22;29544;52.018;5.810;2023-07-31T09:35:13;20.90;74.10
43884;DHT22;29544;52.018;5.810;2023-07-31T09:37:38;20.90;74.30
43884;DHT22;29544;52.018;5.810;2023-07-31T09:40:04;20.90;74.50
43884;DHT22;29544;52.018;5.810;2023-07-31T09:42:29;20.90;74.70
43884;DHT22;29544;52.018;5.810;2023-07-31T09:45:07;21.00;74.90
43884;DHT22;29544;52.018;5.810;2023-07-31T09:47:33;21.00;74.90
43884;DHT22;29544;52.018;5.810;2023-07-31T09:49:59;21.00;75.00
43884;DHT22;29544;52.018;5.810;2023-07-31T09:52:26;21.00;75.10
43884;DHT22;29544;52.018;5.810;2023-07-31T09:54:51;21.00;75.10
43884;DHT22;29544;52.018;5.810;2023-07-31T09:57:17;21.00;75.10
43884;DHT22;29544;52.018;5.810;2023-07-31T09:59:42;21.00;75.20
43884;DHT22;29544;52.018;5.810;2023-07-31T10:02:08;21.00;75.20
43884;DHT22;29544;52.018;5.810;2023-07-31T10:04:39;21.00;75.30
43884;DHT22;29544;52.018;5.810;2023-07-31T10:07:05;21.00;75.30
43884;DHT22;29544;52.018;5.810;2023-07-31T10:09:31;21.00;75.30
43884;DHT22;29544;52.018;5.810;2023-07-31T10:11:59;21.00;75.20
43884;DHT22;29544;52.018;5.810;2023-07-31T10:14:25;21.00;75.20
43884;DHT22;29544;52.018;5.810;2023-07-31T10:16:51;20.90;75.40
43884;DHT22;29544;52.018;5.810;2023-07-31T10:19:18;21.00;75.20
43884;DHT22;29544;52.018;5.810;2023-07-31T10:21:43;21.00;75.10
43884;DHT22;29544;52.018;5.810;2023-07-31T10:24:10;21.00;75.20
43884;DHT22;29544;52.018;5.810;2023-07-31T10:26:37;21.00;75.30
43884;DHT22;29544;52.018;5.810;2023-07-31T10:29:03;21.00;75.30
43884;DHT22;29544;52.018;5.810;2023-07-31T10:31:28;21.00;75.50
43884;DHT22;29544;52.018;5.810;2023-07-31T10:33:54;21.00;75.40
43884;DHT22;29544;52.018;5.810;2023-07-31T10:36:21;21.00;75.40
43884;DHT22;29544;52.018;5.810;2023-07-31T10:38:49;21.00;75.50
43884;DHT22;29544;52.018;5.810;2023-07-31T10:41:16;21.00;75.30
43884;DHT22;29544;52.018;5.810;2023-07-31T10:43:41;21.00;75.50
43884;DHT22;29544;52.018;5.810;2023-07-31T10:46:08;21.00;75.40
43884;DHT22;29544;52.018;5.810;2023-07-31T10:48:34;21.00;75.40
43884;DHT22;29544;52.018;5.810;2023-07-31T10:51:02;21.00;75.30
43884;DHT22;29544;52.018;5.810;2023-07-31T10:53:32;21.00;75.20
43884;DHT22;29544;52.018;5.810;2023-07-31T10:55:58;21.00;75.10
43884;DHT22;29544;52.018;5.810;2023-07-31T10:58:24;21.00;75.10
43884;DHT22;29544;52.018;5.810;2023-07-31T11:00:49;21.00;75.20
43884;DHT22;29544;52.018;5.810;2023-07-31T11:03:15;21.00;75.10
43884;DHT22;29544;52.018;5.810;2023-07-31T11:05:42;21.00;75.20
43884;DHT22;29544;52.018;5.810;2023-07-31T11:08:14;21.00;75.10
43884;DHT22;29544;52.018;5.810;2023-07-31T11:10:40;21.00;75.30
43884;DHT22;29544;52.018;5.810;2023-07-31T11:13:06;21.00;75.40
43884;DHT22;29544;52.018;5.810;2023-07-31T11:15:31;21.00;75.50
43884;DHT22;29544;52.018;5.810;2023-07-31T11:17:57;21.00;75.30
43884;DHT22;29544;52.018;5.810;2023-07-31T11:20:25;21.00;75.30
43884;DHT22;29544;52.018;5.810;2023-07-31T11:22:50;21.00;75.30
43884;DHT22;29544;52.018;5.810;2023-07-31T11:25:16;21.00;75.40
43884;DHT22;29544;52.018;5.810;2023-07-31T11:27:43;21.00;75.50
43884;DHT22;29544;52.018;5.810;2023-07-31T11:30:09;20.90;75.30
43884;DHT22;29544;52.018;5.810;2023-07-31T11:32:38;21.00;75.30
43884;DHT22;29544;52.018;5.810;2023-07-31T11:35:03;21.00;75.40
43884;DHT22;29544;52.018;5.810;2023-07-31T11:37:40;21.00;75.20
43884;DHT22;29544;52.018;5.810;2023-07-31T11:40:06;21.00;75.30
43884;DHT22;29544;52.018;5.810;2023-07-31T11:42:32;21.00;75.50
43884;DHT22;29544;52.018;5.810;2023-07-31T11:44:57;21.00;75.40
43884;DHT22;29544;52.018;5.810;2023-07-31T11:47:23;21.00;75.40
43884;DHT22;29544;52.018;5.810;2023-07-31T11:49:50;21.00;75.50
43884;DHT22;29544;52.018;5.810;2023-07-31T11:52:16;21.00;75.50
43884;DHT22;29544;52.018;5.810;2023-07-31T11:54:44;21.00;75.60
43884;DHT22;29544;52.018;5.810;2023-07-31T11:57:10;21.00;75.60
43884;DHT22;29544;52.018;5.810;2023-07-31T11:59:37;21.00;75.60
43884;DHT22;29544;52.018;5.810;2023-07-31T12:02:03;21.00;75.50
43884;DHT22;29544;52.018;5.810;2023-07-31T12:04:29;21.00;75.60
43884;DHT22;29544;52.018;5.810;2023-07-31T12:06:54;21.00;75.70
43884;DHT22;29544;52.018;5.810;2023-07-31T12:09:20;21.00;75.70
43884;DHT22;29544;52.018;5.810;2023-07-31T12:11:46;21.00;75.60
43884;DHT22;29544;52.018;5.810;2023-07-31T12:14:21;21.00;75.80
43884;DHT22;29544;52.018;5.810;2023-07-31T12:16:53;21.00;75.90
43884;DHT22;29544;52.018;5.810;2023-07-31T12:19:19;20.90;75.70
43884;DHT22;29544;52.018;5.810;2023-07-31T12:21:45;20.90;75.70
43884;DHT22;29544;52.018;5.810;2023-07-31T12:24:10;20.90;75.60
43884;DHT22;29544;52.018;5.810;2023-07-31T12:26:36;20.90;75.80
43884;DHT22;29544;52.018;5.810;2023-07-31T12:29:01;21.00;75.50
43884;DHT22;29544;52.018;5.810;2023-07-31T12:31:27;21.00;75.50
43884;DHT22;29544;52.018;5.810;2023-07-31T12:33:53;21.00;75.50
43884;DHT22;29544;52.018;5.810;2023-07-31T12:38:44;21.00;75.70
43884;DHT22;29544;52.018;5.810;2023-07-31T12:41:09;21.00;75.70
43884;DHT22;29544;52.018;5.810;2023-07-31T12:43:36;20.90;75.70
43884;DHT22;29544;52.018;5.810;2023-07-31T12:46:02;21.00;75.70
43884;DHT22;29544;52.018;5.810;2023-07-31T12:48:27;20.90;75.80
43884;DHT22;29544;52.018;5.810;2023-07-31T12:50:53;20.90;75.60
43884;DHT22;29544;52.018;5.810;2023-07-31T12:53:18;20.90;75.60
43884;DHT22;29544;52.018;5.810;2023-07-31T12:55:43;21.00;75.60
43884;DHT22;29544;52.018;5.810;2023-07-31T12:58:09;21.00;75.70
43884;DHT22;29544;52.018;5.810;2023-07-31T13:00:34;21.00;75.70
43884;DHT22;29544;52.018;5.810;2023-07-31T13:03:00;21.00;75.70
43884;DHT22;29544;52.018;5.810;2023-07-31T13:05:26;20.90;75.50
43884;DHT22;29544;52.018;5.810;2023-07-31T13:07:51;21.00;75.70
43884;DHT22;29544;52.018;5.810;2023-07-31T13:10:17;21.00;75.60
43884;DHT22;29544;52.018;5.810;2023-07-31T13:12:42;21.00;75.60
43884;DHT22;29544;52.018;5.810;2023-07-31T13:15:08;20.90;75.50
43884;DHT22;29544;52.018;5.810;2023-07-31T13:17:35;21.00;75.60
43884;DHT22;29544;52.018;5.810;2023-07-31T13:20:00;21.00;75.60
43884;DHT22;29544;52.018;5.810;2023-07-31T13:22:26;21.00;75.60
43884;DHT22;29544;52.018;5.810;2023-07-31T13:24:51;21.00;75.70
43884;DHT22;29544;52.018;5.810;2023-07-31T13:27:17;21.00;75.80
43884;DHT22;29544;52.018;5.810;2023-07-31T13:29:48;21.00;75.80
43884;DHT22;29544;52.018;5.810;2023-07-31T13:32:15;20.90;75.70
43884;DHT22;29544;52.018;5.810;2023-07-31T13:34:40;21.00;75.70
43884;DHT22;29544;52.018;5.810;2023-07-31T13:37:06;20.90;75.70
43884;DHT22;29544;52.018;5.810;2023-07-31T13:39:31;21.00;75.70
43884;DHT22;29544;52.018;5.810;2023-07-31T13:41:58;21.00;75.70
43884;DHT22;29544;52.018;5.810;2023-07-31T13:44:23;21.00;75.80
43884;DHT22;29544;52.018;5.810;2023-07-31T13:46:49;20.90;76.10
43884;DHT22;29544;52.018;5.810;2023-07-31T13:49:14;20.90;76.10
43884;DHT22;29544;52.018;5.810;2023-07-31T13:51:40;21.00;76.30
43884;DHT22;29544;52.018;5.810;2023-07-31T13:54:05;21.00;76.70
43884;DHT22;29544;52.018;5.810;2023-07-31T13:56:33;21.00;76.60
43884;DHT22;29544;52.018;5.810;2023-07-31T13:58:59;21.00;76.70
43884;DHT22;29544;52.018;5.810;2023-07-31T14:01:26;21.00;76.60
43884;DHT22;29544;52.018;5.810;2023-07-31T14:03:51;21.00;76.70
43884;DHT22;29544;52.018;5.810;2023-07-31T14:06:17;21.00;76.90
43884;DHT22;29544;52.018;5.810;2023-07-31T14:08:42;21.00;76.90
43884;DHT22;29544;52.018;5.810;2023-07-31T14:11:08;21.00;76.80
43884;DHT22;29544;52.018;5.810;2023-07-31T14:13:33;21.00;77.40
43884;DHT22;29544;52.018;5.810;2023-07-31T14:15:59;21.00;76.80
43884;DHT22;29544;52.018;5.810;2023-07-31T14:18:24;21.00;76.80
43884;DHT22;29544;52.018;5.810;2023-07-31T14:20:50;21.00;76.80
43884;DHT22;29544;52.018;5.810;2023-07-31T14:23:15;21.00;76.90
43884;DHT22;29544;52.018;5.810;2023-07-31T14:25:41;21.00;76.70
43884;DHT22;29544;52.018;5.810;2023-07-31T14:28:06;21.00;76.60
43884;DHT22;29544;52.018;5.810;2023-07-31T14:30:32;21.00;76.50
43884;DHT22;29544;52.018;5.810;2023-07-31T14:32:57;21.00;76.50
43884;DHT22;29544;52.018;5.810;2023-07-31T14:35:23;21.00;76.40
43884;DHT22;29544;52.018;5.810;2023-07-31T14:37:48;21.00;76.40
43884;DHT22;29544;52.018;5.810;2023-07-31T14:40:13;21.00;76.50
43884;DHT22;29544;52.018;5.810;2023-07-31T14:42:39;21.00;76.50
43884;DHT22;29544;52.018;5.810;2023-07-31T14:45:05;21.00;76.50
43884;DHT22;29544;52.018;5.810;2023-07-31T14:47:31;21.00;76.40
43884;DHT22;29544;52.018;5.810;2023-07-31T14:49:57;21.00;76.40
43884;DHT22;29544;52.018;5.810;2023-07-31T14:52:23;21.00;76.40
43884;DHT22;29544;52.018;5.810;2023-07-31T14:54:48;21.00;76.40
43884;DHT22;29544;52.018;5.810;2023-07-31T14:57:14;21.00;76.40
43884;DHT22;29544;52.018;5.810;2023-07-31T14:59:39;21.00;76.50
43884;DHT22;29544;52.018;5.810;2023-07-31T15:02:05;21.00;76.40
43884;DHT22;29544;52.018;5.810;2023-07-31T15:04:30;21.10;76.60
43884;DHT22;29544;52.018;5.810;2023-07-31T15:06:56;21.00;76.50
43884;DHT22;29544;52.018;5.810;2023-07-31T15:09:22;21.10;76.40
43884;DHT22;29544;52.018;5.810;2023-07-31T15:11:47;21.10;76.60
43884;DHT22;29544;52.018;5.810;2023-07-31T15:14:12;21.10;76.60
43884;DHT22;29544;52.018;5.810;2023-07-31T15:16:38;21.10;76.60
43884;DHT22;29544;52.018;5.810;2023-07-31T15:19:03;21.10;76.60
43884;DHT22;29544;52.018;5.810;2023-07-31T15:21:29;21.10;76.50
43884;DHT22;29544;52.018;5.810;2023-07-31T15:23:55;21.10;76.50
43884;DHT22;29544;52.018;5.810;2023-07-31T15:26:20;21.10;76.60
43884;DHT22;29544;52.018;5.810;2023-07-31T15:28:49;21.10;76.50
43884;DHT22;29544;52.018;5.810;2023-07-31T15:31:18;21.10;76.60